createdAt,value
2018-07-07T00:02:24.547Z,99.30
2018-07-07T00:04:55.207Z,99.30
2018-07-07T00:07:25.813Z,99.50
2018-07-07T00:09:56.428Z,99.50
2018-07-07T00:14:57.131Z,99.40
2018-07-07T00:17:27.727Z,99.40
2018-07-07T00:19:58.376Z,99.00
2018-07-07T00:22:29.288Z,98.90
2018-07-07T00:25:00.012Z,99.00
2018-07-07T00:27:30.561Z,98.90
2018-07-07T00:30:01.203Z,98.80
2018-07-07T00:32:32.772Z,98.70
2018-07-07T00:35:03.384Z,98.50
2018-07-07T00:37:34.091Z,98.40
2018-07-07T00:40:05.248Z,98.30
2018-07-07T00:45:06.375Z,98.10
2018-07-07T00:47:37.260Z,98.20
2018-07-07T00:50:12.353Z,98.20
2018-07-07T00:52:42.895Z,98.10
2018-07-07T00:55:13.579Z,98.10
2018-07-07T00:57:44.129Z,97.90
2018-07-07T01:00:14.780Z,97.50
2018-07-07T01:02:45.281Z,97.30
2018-07-07T01:05:35.072Z,97.20
2018-07-07T01:08:06.070Z,97.40
2018-07-07T01:10:36.778Z,97.60
2018-07-07T01:13:07.293Z,97.70
2018-07-07T01:18:09.092Z,97.50
2018-07-07T01:20:40.153Z,98.10
2018-07-07T01:23:10.884Z,97.90
2018-07-07T01:25:41.541Z,98.00
2018-07-07T01:28:12.102Z,98.00
2018-07-07T01:30:42.849Z,98.20
2018-07-07T01:35:44.434Z,98.10
2018-07-07T01:40:45.050Z,98.10
2018-07-07T01:43:15.818Z,98.40
2018-07-07T01:45:46.345Z,98.20
2018-07-07T01:48:16.959Z,98.30
2018-07-07T01:53:17.728Z,98.30
2018-07-07T01:55:48.449Z,98.20
2018-07-07T02:03:19.528Z,98.30
2018-07-07T02:08:20.330Z,97.90
2018-07-07T02:10:50.960Z,98.10
2018-07-07T02:13:25.893Z,98.10
2018-07-07T02:15:56.502Z,98.30
2018-07-07T02:18:31.591Z,98.50
2018-07-07T02:21:03.411Z,99.10
2018-07-07T02:23:34.323Z,99.50
2018-07-07T02:26:04.880Z,99.60
2018-07-07T02:28:35.567Z,99.70
2018-07-07T02:31:06.506Z,99.90
2018-07-07T02:36:07.200Z,99.70
2018-07-07T02:38:37.701Z,99.50
2018-07-07T02:41:08.349Z,99.60
2018-07-07T02:43:38.924Z,99.20
2018-07-07T02:46:09.923Z,99.00
2018-07-07T02:48:40.513Z,98.80
2018-07-07T02:51:11.168Z,98.80
2018-07-07T02:53:42.256Z,98.70
2018-07-07T02:56:13.359Z,98.60
2018-07-07T03:01:14.161Z,98.50
2018-07-07T03:03:44.737Z,98.30
2018-07-07T03:06:15.437Z,98.00
2018-07-07T03:08:46.455Z,97.80
2018-07-07T03:11:17.052Z,97.50
2018-07-07T03:13:47.687Z,97.20
2018-07-07T03:16:18.291Z,97.80
2018-07-07T03:18:48.947Z,97.60
2018-07-07T03:21:19.605Z,97.20
2018-07-07T03:23:50.273Z,97.10
2018-07-07T03:31:21.409Z,97.30
2018-07-07T03:33:51.872Z,97.50
2018-07-07T03:36:22.938Z,97.30
2018-07-07T03:41:25.756Z,97.80
2018-07-07T03:43:56.403Z,97.70
2018-07-07T03:46:26.991Z,97.50
2018-07-07T03:51:28.888Z,97.30
2018-07-07T03:53:59.524Z,97.70
2018-07-07T03:56:30.116Z,97.80
2018-07-07T03:59:00.741Z,97.70
2018-07-07T04:01:31.543Z,97.90
2018-07-07T04:04:02.260Z,97.70
2018-07-07T04:06:33.055Z,97.30
2018-07-07T04:09:03.822Z,97.30
2018-07-07T04:11:34.457Z,97.50
2018-07-07T04:14:05.161Z,97.30
2018-07-07T04:16:35.802Z,97.00
2018-07-07T04:21:36.401Z,96.50
2018-07-07T04:24:06.989Z,96.60
2018-07-07T04:26:37.791Z,96.40
2018-07-07T04:29:08.333Z,96.50
2018-07-07T04:31:38.807Z,96.20
2018-07-07T04:34:10.054Z,95.80
2018-07-07T04:36:40.600Z,95.10
2018-07-07T04:39:11.282Z,94.40
2018-07-07T04:41:41.934Z,94.00
2018-07-07T04:44:12.770Z,93.70
2018-07-07T04:46:43.587Z,93.60
2018-07-07T04:49:14.266Z,94.10
2018-07-07T04:51:45.848Z,94.60
2018-07-07T04:54:16.448Z,94.10
2018-07-07T04:56:47.990Z,93.90
2018-07-07T04:59:18.603Z,93.40
2018-07-07T05:04:20.127Z,93.20
2018-07-07T05:06:50.709Z,93.50
2018-07-07T05:09:21.358Z,93.30
2018-07-07T05:11:52.310Z,93.20
2018-07-07T05:14:22.865Z,93.10
2018-07-07T05:16:54.180Z,92.60
2018-07-07T05:19:24.735Z,93.10
2018-07-07T05:21:56.289Z,92.50
2018-07-07T05:24:26.959Z,91.80
2018-07-07T05:26:57.925Z,92.10
2018-07-07T05:29:28.464Z,91.70
2018-07-07T05:31:59.203Z,91.50
2018-07-07T05:34:29.905Z,90.70
2018-07-07T05:37:00.490Z,90.10
2018-07-07T05:39:31.159Z,87.00
2018-07-07T05:42:01.764Z,86.00
2018-07-07T05:44:32.409Z,85.70
2018-07-07T05:47:03.028Z,85.00
2018-07-07T05:49:34.172Z,84.50
2018-07-07T05:52:05.227Z,80.40
2018-07-07T05:54:35.921Z,73.70
2018-07-07T05:57:06.691Z,71.30
2018-07-07T05:59:37.381Z,61.60
2018-07-07T06:02:07.944Z,57.80
2018-07-07T06:04:38.439Z,54.90
2018-07-07T06:07:09.012Z,51.10
2018-07-07T06:09:39.576Z,50.70
2018-07-07T06:12:10.054Z,51.30
2018-07-07T06:14:40.842Z,48.10
2018-07-07T06:17:11.561Z,50.20
2018-07-07T06:19:42.179Z,47.20
2018-07-07T06:22:12.997Z,47.80
2018-07-07T06:24:43.468Z,46.90
2018-07-07T06:27:14.068Z,45.30
2018-07-07T06:29:44.712Z,45.20
2018-07-07T06:32:15.341Z,45.60
2018-07-07T06:34:45.827Z,43.70
2018-07-07T06:37:16.625Z,44.10
2018-07-07T06:39:47.256Z,42.70
2018-07-07T06:42:17.922Z,39.30
2018-07-07T06:44:48.667Z,38.40
2018-07-07T06:47:19.445Z,37.90
2018-07-07T06:49:50.071Z,37.50
2018-07-07T06:52:20.531Z,35.80
2018-07-07T06:54:51.642Z,35.60
2018-07-07T06:57:22.206Z,35.30
2018-07-07T06:59:52.801Z,34.40
2018-07-07T07:02:23.479Z,35.60
2018-07-07T07:04:54.133Z,34.80
2018-07-07T07:07:24.831Z,35.40
2018-07-07T07:09:55.530Z,36.10
2018-07-07T07:12:26.104Z,37.50
2018-07-07T07:14:56.892Z,39.90
2018-07-07T07:17:27.559Z,38.00
2018-07-07T07:19:58.471Z,36.40
2018-07-07T07:22:29.168Z,36.40
2018-07-07T07:24:59.681Z,38.00
2018-07-07T07:27:30.685Z,34.90
2018-07-07T07:30:01.457Z,32.20
2018-07-07T07:32:32.157Z,33.50
2018-07-07T07:35:02.809Z,31.50
2018-07-07T07:37:33.247Z,31.60
2018-07-07T07:40:03.922Z,30.80
2018-07-07T07:42:35.134Z,32.40
2018-07-07T07:45:05.841Z,29.50
2018-07-07T07:47:36.556Z,29.40
2018-07-07T07:50:07.810Z,30.70
2018-07-07T07:52:38.336Z,29.70
2018-07-07T07:55:09.156Z,28.50
2018-07-07T07:57:39.822Z,27.80
2018-07-07T08:00:10.527Z,28.40
2018-07-07T08:02:41.110Z,27.80
2018-07-07T08:05:11.785Z,27.30
2018-07-07T08:07:42.945Z,26.80
2018-07-07T08:10:13.651Z,26.90
2018-07-07T08:12:44.231Z,26.60
2018-07-07T08:15:14.952Z,28.20
2018-07-07T08:17:45.392Z,27.70
2018-07-07T08:20:16.090Z,26.90
2018-07-07T08:22:46.874Z,26.70
2018-07-07T08:25:17.671Z,27.30
2018-07-07T08:27:48.441Z,28.20
2018-07-07T08:30:19.157Z,29.60
2018-07-07T08:32:49.953Z,29.80
2018-07-07T08:35:27.436Z,29.60
2018-07-07T08:37:58.713Z,29.80
2018-07-07T08:40:29.458Z,29.60
2018-07-07T08:43:00.642Z,29.10
2018-07-07T08:45:31.298Z,30.80
2018-07-07T08:48:02.025Z,27.70
2018-07-07T08:50:32.668Z,27.10
2018-07-07T08:53:03.250Z,25.60
2018-07-07T08:55:33.894Z,25.40
2018-07-07T08:58:04.716Z,25.70
2018-07-07T09:00:35.358Z,26.00
2018-07-07T09:03:07.661Z,26.60
2018-07-07T09:05:38.231Z,28.60
2018-07-07T09:08:08.768Z,26.00
2018-07-07T09:10:39.360Z,26.80
2018-07-07T09:13:09.997Z,28.10
2018-07-07T09:15:40.490Z,30.50
2018-07-07T09:18:11.249Z,27.30
2018-07-07T09:20:41.875Z,27.90
2018-07-07T09:23:12.535Z,28.40
2018-07-07T09:25:43.172Z,29.50
2018-07-07T09:28:13.696Z,30.60
2018-07-07T09:30:44.509Z,32.20
2018-07-07T09:33:14.950Z,32.50
2018-07-07T09:35:45.462Z,30.90
2018-07-07T09:38:15.984Z,31.70
2018-07-07T09:40:46.648Z,34.10
2018-07-07T09:43:17.216Z,34.90
2018-07-07T09:45:48.810Z,38.40
2018-07-07T09:48:19.560Z,33.60
2018-07-07T09:50:50.131Z,34.00
2018-07-07T09:53:20.980Z,32.50
2018-07-07T09:55:51.672Z,33.60
2018-07-07T09:58:22.993Z,34.10
2018-07-07T10:00:53.564Z,37.00
2018-07-07T10:03:24.178Z,36.30
2018-07-07T10:05:54.788Z,36.20
2018-07-07T10:08:25.636Z,37.10
2018-07-07T10:10:56.259Z,37.90
2018-07-07T10:13:26.943Z,36.80
2018-07-07T10:15:57.565Z,39.40
2018-07-07T10:18:28.204Z,37.50
2018-07-07T10:20:58.974Z,38.60
2018-07-07T10:23:29.733Z,39.00
2018-07-07T10:26:00.837Z,40.00
2018-07-07T10:28:31.515Z,37.30
2018-07-07T10:36:02.721Z,37.00
2018-07-07T10:38:33.317Z,36.70
2018-07-07T10:41:03.889Z,37.20
2018-07-07T10:43:34.611Z,38.20
2018-07-07T10:46:05.703Z,39.20
2018-07-07T10:48:36.292Z,40.40
2018-07-07T10:51:07.494Z,41.30
2018-07-07T10:53:38.150Z,39.10
2018-07-07T10:56:08.847Z,37.50
2018-07-07T10:58:39.588Z,36.10
2018-07-07T11:01:10.442Z,35.70
2018-07-07T11:03:41.215Z,39.90
2018-07-07T11:06:11.967Z,38.30
2018-07-07T11:08:42.708Z,39.70
2018-07-07T11:11:13.401Z,41.20
2018-07-07T11:13:44.232Z,42.00
2018-07-07T11:16:16.047Z,42.40
2018-07-07T11:18:46.608Z,42.40
2018-07-07T11:21:17.778Z,41.80
2018-07-07T11:23:48.340Z,40.30
2018-07-07T11:26:18.937Z,41.40
2018-07-07T11:28:49.576Z,41.80
2018-07-07T11:31:20.414Z,43.70
2018-07-07T11:33:51.139Z,43.10
2018-07-07T11:36:22.000Z,43.40
2018-07-07T11:38:52.902Z,43.50
2018-07-07T11:41:24.058Z,45.30
2018-07-07T11:43:55.299Z,44.30
2018-07-07T11:46:26.564Z,43.20
2018-07-07T11:48:57.269Z,44.10
2018-07-07T11:51:28.050Z,44.50
2018-07-07T11:53:58.858Z,45.80
2018-07-07T11:56:29.421Z,47.10
2018-07-07T11:59:00.024Z,43.50
2018-07-07T12:01:30.604Z,43.70
2018-07-07T12:04:01.076Z,44.10
2018-07-07T12:06:32.050Z,42.90
2018-07-07T12:09:02.657Z,43.80
2018-07-07T12:11:33.363Z,43.30
2018-07-07T12:14:04.218Z,42.10
2018-07-07T12:16:34.928Z,42.60
2018-07-07T12:19:05.590Z,43.20
2018-07-07T12:21:36.445Z,44.50
2018-07-07T12:24:07.656Z,43.40
2018-07-07T12:26:38.098Z,43.20
2018-07-07T12:29:08.732Z,44.70
2018-07-07T12:31:39.467Z,43.80
2018-07-07T12:34:10.008Z,43.00
2018-07-07T12:36:40.769Z,41.30
2018-07-07T12:39:11.452Z,40.90
2018-07-07T12:44:12.842Z,42.30
2018-07-07T12:46:43.448Z,41.20
2018-07-07T12:49:14.141Z,40.10
2018-07-07T12:51:47.662Z,39.60
2018-07-07T12:56:48.531Z,41.60
2018-07-07T12:59:19.242Z,42.90
2018-07-07T13:01:50.122Z,43.60
2018-07-07T13:04:20.816Z,42.60
2018-07-07T13:06:51.402Z,41.40
2018-07-07T13:09:22.087Z,41.00
2018-07-07T13:11:52.730Z,40.50
2018-07-07T13:14:24.862Z,40.30
2018-07-07T13:16:55.674Z,41.70
2018-07-07T13:19:26.375Z,41.40
2018-07-07T13:21:57.718Z,41.10
2018-07-07T13:26:58.454Z,41.70
2018-07-07T13:29:29.105Z,42.00
2018-07-07T13:31:59.637Z,42.30
2018-07-07T13:34:30.200Z,41.80
2018-07-07T13:37:00.875Z,42.10
2018-07-07T13:42:01.742Z,42.50
2018-07-07T13:44:32.520Z,42.60
2018-07-07T13:47:03.244Z,41.80
2018-07-07T13:49:34.088Z,42.70
2018-07-07T13:52:05.373Z,42.30
2018-07-07T13:54:36.049Z,43.20
2018-07-07T13:57:06.940Z,43.70
2018-07-07T13:59:37.693Z,43.20
2018-07-07T14:02:08.311Z,43.70
2018-07-07T14:04:39.009Z,43.00
2018-07-07T14:07:09.534Z,42.30
2018-07-07T14:09:40.329Z,42.50
2018-07-07T14:12:11.093Z,41.60
2018-07-07T14:14:42.521Z,41.10
2018-07-07T14:17:13.355Z,41.80
2018-07-07T14:19:44.064Z,42.00
2018-07-07T14:22:14.744Z,41.50
2018-07-07T14:24:45.514Z,42.40
2018-07-07T14:27:16.108Z,43.40
2018-07-07T14:29:46.741Z,42.30
2018-07-07T14:32:17.259Z,42.80
2018-07-07T14:34:47.949Z,43.20
2018-07-07T14:37:18.819Z,42.90
2018-07-07T14:42:55.627Z,43.40
2018-07-07T14:45:30.224Z,43.10
2018-07-07T14:48:02.593Z,42.90
2018-07-07T14:50:33.294Z,42.30
2018-07-07T14:53:03.831Z,42.80
2018-07-07T14:55:34.663Z,42.90
2018-07-07T15:00:35.381Z,43.20
2018-07-07T15:03:06.161Z,43.00
2018-07-07T15:05:36.827Z,42.80
2018-07-07T15:08:07.971Z,42.30
2018-07-07T15:10:38.570Z,43.80
2018-07-07T15:13:09.144Z,42.50
2018-07-07T15:15:40.071Z,42.90
2018-07-07T15:18:10.508Z,42.50
2018-07-07T15:20:41.001Z,42.40
2018-07-07T15:23:11.632Z,42.20
2018-07-07T15:25:42.896Z,43.10
2018-07-07T15:28:13.521Z,42.50
2018-07-07T15:30:44.348Z,42.90
2018-07-07T15:33:14.988Z,41.60
2018-07-07T15:35:46.292Z,42.30
2018-07-07T15:38:16.974Z,43.10
2018-07-07T15:43:17.733Z,43.40
2018-07-07T15:45:48.550Z,44.40
2018-07-07T15:48:19.132Z,44.50
2018-07-07T15:50:50.488Z,43.20
2018-07-07T15:53:21.152Z,44.20
2018-07-07T15:55:51.880Z,44.20
2018-07-07T15:58:22.768Z,43.40
2018-07-07T16:00:53.538Z,44.30
2018-07-07T16:03:24.237Z,43.40
2018-07-07T16:05:54.957Z,42.70
2018-07-07T16:08:25.694Z,42.30
2018-07-07T16:10:56.645Z,42.30
2018-07-07T16:13:27.693Z,41.80
2018-07-07T16:15:58.292Z,42.30
2018-07-07T16:23:29.317Z,42.30
2018-07-07T16:25:59.947Z,42.30
2018-07-07T16:28:30.605Z,40.50
2018-07-07T16:31:01.805Z,40.80
2018-07-07T16:33:32.444Z,41.00
2018-07-07T16:36:03.005Z,40.70
2018-07-07T16:38:33.556Z,41.60
2018-07-07T16:41:04.207Z,41.60
2018-07-07T16:43:35.049Z,40.90
2018-07-07T16:46:05.887Z,40.90
2018-07-07T16:48:36.572Z,40.40
2018-07-07T16:51:07.602Z,40.10
2018-07-07T16:53:38.243Z,40.30
2018-07-07T16:56:09.084Z,40.50
2018-07-07T16:58:40.086Z,40.60
2018-07-07T17:01:10.752Z,40.10
2018-07-07T17:03:42.052Z,40.70
2018-07-07T17:06:12.906Z,40.40
2018-07-07T17:08:46.561Z,40.00
2018-07-07T17:13:47.753Z,40.80
2018-07-07T17:16:18.500Z,40.70
2018-07-07T17:18:51.379Z,40.90
2018-07-07T17:21:22.422Z,40.20
2018-07-07T17:23:53.217Z,39.80
2018-07-07T17:26:23.878Z,40.10
2018-07-07T17:28:55.364Z,40.10
2018-07-07T17:31:25.891Z,40.40
2018-07-07T17:33:56.547Z,40.70
2018-07-07T17:36:27.786Z,41.50
2018-07-07T17:38:59.367Z,42.00
2018-07-07T17:41:30.033Z,41.40
2018-07-07T17:44:00.893Z,41.90
2018-07-07T17:46:31.821Z,42.40
2018-07-07T17:49:02.552Z,42.60
2018-07-07T17:51:33.169Z,42.60
2018-07-07T17:54:03.843Z,42.60
2018-07-07T17:56:34.923Z,43.10
2018-07-07T17:59:05.780Z,43.60
2018-07-07T18:01:36.692Z,43.30
2018-07-07T18:04:07.562Z,41.90
2018-07-07T18:06:38.112Z,42.90
2018-07-07T18:09:09.081Z,43.10
2018-07-07T18:11:40.117Z,43.80
2018-07-07T18:14:10.777Z,44.00
2018-07-07T18:19:11.791Z,43.10
2018-07-07T18:24:12.514Z,43.30
2018-07-07T18:26:43.121Z,43.40
2018-07-07T18:31:43.887Z,43.80
2018-07-07T18:34:14.755Z,44.40
2018-07-07T18:36:45.578Z,44.00
2018-07-07T18:39:16.973Z,44.30
2018-07-07T18:41:47.771Z,44.40
2018-07-07T18:44:22.123Z,44.50
2018-07-07T18:46:53.007Z,45.10
2018-07-07T18:49:24.088Z,46.10
2018-07-07T18:51:55.093Z,45.50
2018-07-07T18:54:25.828Z,45.70
2018-07-07T18:56:56.566Z,46.10
2018-07-07T18:59:27.287Z,46.10
2018-07-07T19:01:58.151Z,46.50
2018-07-07T19:04:28.726Z,46.70
2018-07-07T19:06:59.294Z,47.10
2018-07-07T19:09:30.002Z,47.50
2018-07-07T19:12:00.779Z,48.70
2018-07-07T19:14:31.252Z,48.30
2018-07-07T19:17:01.905Z,48.50
2018-07-07T19:19:32.886Z,48.90
2018-07-07T19:22:08.651Z,48.60
2018-07-07T19:24:44.546Z,49.30
2018-07-07T19:27:15.395Z,49.70
2018-07-07T19:29:46.333Z,49.40
2018-07-07T19:32:22.065Z,49.40
2018-07-07T19:34:58.446Z,49.80
2018-07-07T19:39:59.618Z,49.30
2018-07-07T19:42:30.512Z,49.70
2018-07-07T19:45:01.297Z,49.50
2018-07-07T19:47:31.856Z,49.40
2018-07-07T19:50:02.457Z,49.60
2018-07-07T19:55:03.425Z,49.40
2018-07-07T19:57:34.062Z,49.80
2018-07-07T20:00:04.867Z,50.10
2018-07-07T20:05:06.269Z,50.10
2018-07-07T20:07:36.794Z,50.20
2018-07-07T20:10:07.630Z,50.40
2018-07-07T20:12:38.785Z,50.50
2018-07-07T20:15:09.511Z,50.70
2018-07-07T20:18:06.777Z,50.70
2018-07-07T20:20:42.873Z,51.00
2018-07-07T20:23:16.270Z,51.00
2018-07-07T20:25:52.051Z,51.10
2018-07-07T20:28:28.673Z,51.40
2018-07-07T20:30:59.731Z,51.30
2018-07-07T20:33:30.624Z,51.80
2018-07-07T20:36:01.242Z,51.70
2018-07-07T20:38:32.050Z,52.40
2018-07-07T20:41:02.620Z,53.10
2018-07-07T20:43:38.706Z,51.70
2018-07-07T20:46:15.859Z,51.90
2018-07-07T20:48:46.620Z,52.20
2018-07-07T20:51:17.264Z,52.30
2018-07-07T20:53:48.080Z,52.40
2018-07-07T20:56:18.708Z,52.40
2018-07-07T20:58:50.376Z,52.50
2018-07-07T21:02:05.098Z,52.80
2018-07-07T21:04:35.847Z,52.80
2018-07-07T21:07:09.566Z,52.70
2018-07-07T21:09:40.276Z,52.60
2018-07-07T21:12:10.794Z,52.70
2018-07-07T21:17:11.698Z,53.20
2018-07-07T21:19:42.450Z,53.80
2018-07-07T21:22:13.352Z,53.20
2018-07-07T21:24:45.227Z,53.00
2018-07-07T21:27:15.823Z,53.00
2018-07-07T21:29:46.615Z,53.00
2018-07-07T21:32:17.250Z,52.90
2018-07-07T21:34:47.854Z,53.40
2018-07-07T21:37:19.032Z,53.90
2018-07-07T21:39:49.769Z,53.20
2018-07-07T21:42:20.302Z,53.00
2018-07-07T21:44:51.377Z,53.20
2018-07-07T21:47:22.055Z,54.30
2018-07-07T21:49:52.694Z,53.50
2018-07-07T21:52:24.013Z,53.80
2018-07-07T21:54:54.583Z,54.00
2018-07-07T21:57:30.222Z,53.90
2018-07-07T22:00:00.849Z,53.90
2018-07-07T22:02:36.614Z,53.80
2018-07-07T22:05:12.716Z,53.80
2018-07-07T22:07:43.462Z,54.00
2018-07-07T22:10:14.155Z,54.60
2018-07-07T22:12:44.744Z,54.20
2018-07-07T22:15:15.421Z,54.50
2018-07-07T22:17:46.246Z,55.20
2018-07-07T22:20:37.308Z,54.40
2018-07-07T22:23:08.150Z,54.50
2018-07-07T22:25:38.843Z,54.50
2018-07-07T22:30:40.077Z,56.50
2018-07-07T22:33:15.929Z,55.70
2018-07-07T22:35:51.613Z,56.20
2018-07-07T22:38:28.291Z,55.60
2018-07-07T22:40:59.329Z,55.70
2018-07-07T22:46:01.652Z,56.60
2018-07-07T22:48:33.172Z,57.30
2018-07-07T22:56:05.151Z,56.70
2018-07-07T22:58:35.693Z,56.30
2018-07-07T23:01:06.395Z,56.90
2018-07-07T23:03:37.037Z,55.60
2018-07-07T23:06:07.685Z,56.20
2018-07-07T23:08:38.328Z,56.10
2018-07-07T23:11:09.055Z,56.00
2018-07-07T23:13:39.692Z,56.10
2018-07-07T23:18:40.512Z,57.30
2018-07-07T23:21:11.180Z,57.00
2018-07-07T23:23:41.947Z,56.90
2018-07-07T23:26:12.617Z,57.30
2018-07-07T23:28:43.479Z,57.10
2018-07-07T23:31:14.210Z,57.90
2018-07-07T23:33:44.850Z,56.90
2018-07-07T23:36:15.641Z,56.90
2018-07-07T23:38:46.246Z,59.10
2018-07-07T23:41:16.850Z,59.40
2018-07-07T23:43:47.520Z,60.00
2018-07-07T23:48:48.187Z,63.10
2018-07-07T23:51:19.371Z,61.60
2018-07-07T23:53:49.964Z,61.80
2018-07-07T23:56:20.588Z,64.20
2018-07-07T23:58:51.169Z,64.40
